Saturday, April 30, 2016
22:37 UTC
  |  Log In   |  Register Free
Airport Search:

Smithville Municipal Airport
(0A3)

Smithville Municipal Airport Diagram
No Airport Diagram Available

FAA data valid effective Mar 31 2016 - May 26 2016 (unless otherwise noted).

 
 
 
 
 
 
 
 
 
 
 
 
 
 
Current Aviation Weather for 0A3

Weather Summary


Current weather conditions are not available for 0A3 - The nearest NOAA weather station is at SRB, (14.2 nm NE from 0A3)

The most recent METAR observation for 0A3 was updated at: 13:15 UTC
METAR for 0A3 is not available. Closest METAR is for KRNC 17.3 nm NE
KRNC  (17.3 nm NE)   (most recent observation was updated at 30:22 UTC)
302215Z AUTO 26004KT 10SM BKN050 BKN090 23/18 A2991 RMK

KMQY  (34.6 nm SE)   (most recent observation was updated at 30:21 UTC)
302156Z 23003KT 9SM -RA FEW045 23/18 A2989 RMK AO2 T02330183 RAB33 P0000 SLP128

TAF for 0A3 is not available.
GlobalAir.com is loading additional information.
 Current Weather at MQY
77.0 F° (25.0 C°)

South winds at 4.6 mph
Pressure:
29.89 in
Humidity:
66%
Wind:
South at 4.6 mph
Dew Point:
64.9 F° (18.3 C°)
Visibility:
10.00 mi
0A3 NOAA Radar




Find All Airport Services Find A Hotel Find A Rental Car Find A Golf Course Find A Restaurant $100 Hamburger



Airport Weather Forecast for 0A3

Translated METAR for KSRB (2215 UTC)
METAR:
KSRB 302215Z AUTO 00000KT 10SM CLR 24/19 A2989 RMK
Conditions at:
KSRB (Upper Cumberland Rgnl, TN) observed 2215 UTC 30 April 2016
Temperature:
24°C (75.2°F)
Dewpoint:
19°C (66.2°F) [RH = 73.6]
Pressure:
29.89 inches Hg (1012.2 mb)
Winds:
from the N (000 degrees) at 0 mph (0 knots: 0 m/s)
Visibility:
10 mile(s)
Ceiling:
at least 12,000 feet AGL
Clouds:
Clear below 12,000 feet AGL
Remarks:
site is un-manned

Translated TAF for TAF for 0A3 is not available. Refer to local area forecast.
FBO's on the Field
FBO Company Facility Photos Services Transportation Aviation Fuel Prices: Prices include tax
Catering Weather Repair Courtesy Rental Type 100LL JetA JetA+ MOGAS 8087
 
Smithville Municipal Airport

This FBO has not yet been rated
FS:Shell
Last Updated: Apr-18
Login to update fuel prices
SS:
Contact Smithville Municipal AirportMore FBO Information
 
Add another FBO Facility Photos Catering Weather Repair Courtesy Rental Type 100LL JetA JetA+ MOGAS 8087
Services Transportation Aviation Fuel Prices: Prices include tax


model-print
model-print
model-print
model-print